Ana Sayfa
METAR-TAF:

METAR-TAF

Havaalanları :

Ferit Melen Havalimanı

Van, Türkiye

Enlem: 38-27N, Boylam: 043-19E, yükseklik: 1667 m

Güncel hava durumu gözlemi

Rapor saat 16:50 UTC de 1 saat ve 6 dakika önce yapıldı.
Rüzgar batıdan 3 kt, güney ve kuzey/kuzeybatı arasında değişken
Sıcaklık 24°C
Nem 41%
Basınç 1011 hPa
Görüş mesafesi 10 km veya daha fazla
1500 m altında bulut yok ve kümülonimbus yok

METAR: LTCI 181650Z 27003KT 190V330 CAVOK 24/10 Q1011 NOSIG

Saat: 20:56 (17:56 UTC)

Tahmin

Rapor saat 16:40 UTC de 1 saat ve 16 dakika önce yapıldı.
Ayın 18'si saat 18 UTC'den ayın 19'si saat 03 UTC'ye kadar geçerli Tahmin
Rüzgar değişken yönden 2 kt
Görüş mesafesi 10 km veya daha fazla
1500 m altında bulut yok ve kümülonimbus yok

TAF: LTCI 181640Z 1818/1903 VRB02KT CAVOK

4.000'den fazla havaalanı için hava durumu gözlemleri ve tahminleri (METAR ve TAF raporları).

Kullanılabilir istasyonlar harita üzerinde sarı ve kırmızı noktalarla gösterilir.

İstasyonun adını görmek için fareyi noktanın üzerinde gezdirin.

Sonrasında hava gözlem ve tahminlerini görmek için tıklayın.

Haritayı değiştirmek için: yaklaştırmak için siyah artı işaretli yeşil düğmeye ve uzaklaştırmak için de eksi işaretli düğmeye hızla tıklayın; bitişik haritalar için yeşil okları kullanın.


METAR-TAF: